sensor_id;sensor_type;location;lat;lon;timestamp;P1;durP1;ratioP1;P2;durP2;ratioP2
21158;SDS011;10737;45.436;4.390;2024-02-04T00:02:14;36.58;;;21.17;;
21158;SDS011;10737;45.436;4.390;2024-02-04T00:07:18;36.75;;;22.75;;
21158;SDS011;10737;45.436;4.390;2024-02-04T00:12:25;33.72;;;23.45;;
21158;SDS011;10737;45.436;4.390;2024-02-04T00:17:29;30.23;;;20.77;;
21158;SDS011;10737;45.436;4.390;2024-02-04T00:22:35;47.63;;;30.80;;
21158;SDS011;10737;45.436;4.390;2024-02-04T00:27:39;25.33;;;18.35;;
21158;SDS011;10737;45.436;4.390;2024-02-04T00:32:43;18.90;;;14.95;;
21158;SDS011;10737;45.436;4.390;2024-02-04T00:37:47;25.98;;;18.60;;
21158;SDS011;10737;45.436;4.390;2024-02-04T00:42:53;20.55;;;15.55;;
21158;SDS011;10737;45.436;4.390;2024-02-04T00:47:57;29.13;;;20.58;;
21158;SDS011;10737;45.436;4.390;2024-02-04T00:53:00;30.77;;;22.15;;
21158;SDS011;10737;45.436;4.390;2024-02-04T00:58:06;24.08;;;17.33;;
21158;SDS011;10737;45.436;4.390;2024-02-04T01:03:09;21.88;;;16.80;;
21158;SDS011;10737;45.436;4.390;2024-02-04T01:08:14;24.80;;;20.23;;
21158;SDS011;10737;45.436;4.390;2024-02-04T01:13:21;23.30;;;18.23;;
21158;SDS011;10737;45.436;4.390;2024-02-04T01:18:24;19.63;;;16.33;;
21158;SDS011;10737;45.436;4.390;2024-02-04T01:23:28;19.00;;;15.50;;
21158;SDS011;10737;45.436;4.390;2024-02-04T01:28:32;24.75;;;18.10;;
21158;SDS011;10737;45.436;4.390;2024-02-04T01:33:36;22.58;;;16.45;;
21158;SDS011;10737;45.436;4.390;2024-02-04T01:38:39;17.85;;;13.90;;
21158;SDS011;10737;45.436;4.390;2024-02-04T01:43:44;20.02;;;14.05;;
21158;SDS011;10737;45.436;4.390;2024-02-04T01:48:48;17.92;;;14.20;;
21158;SDS011;10737;45.436;4.390;2024-02-04T01:53:52;18.73;;;14.65;;
21158;SDS011;10737;45.436;4.390;2024-02-04T01:58:57;15.60;;;13.80;;
21158;SDS011;10737;45.436;4.390;2024-02-04T02:04:01;16.92;;;13.98;;
21158;SDS011;10737;45.436;4.390;2024-02-04T02:09:05;18.15;;;14.52;;
21158;SDS011;10737;45.436;4.390;2024-02-04T02:14:13;17.65;;;15.07;;
21158;SDS011;10737;45.436;4.390;2024-02-04T02:19:21;18.92;;;15.73;;
21158;SDS011;10737;45.436;4.390;2024-02-04T02:24:35;22.38;;;15.98;;
21158;SDS011;10737;45.436;4.390;2024-02-04T02:29:41;22.08;;;16.70;;
21158;SDS011;10737;45.436;4.390;2024-02-04T02:34:44;20.45;;;15.82;;
21158;SDS011;10737;45.436;4.390;2024-02-04T02:39:52;20.70;;;15.63;;
21158;SDS011;10737;45.436;4.390;2024-02-04T02:45:00;21.73;;;16.23;;
21158;SDS011;10737;45.436;4.390;2024-02-04T02:50:05;24.05;;;17.20;;
21158;SDS011;10737;45.436;4.390;2024-02-04T02:55:10;23.88;;;16.95;;
21158;SDS011;10737;45.436;4.390;2024-02-04T03:00:14;24.52;;;18.10;;
21158;SDS011;10737;45.436;4.390;2024-02-04T03:05:19;40.95;;;27.00;;
21158;SDS011;10737;45.436;4.390;2024-02-04T03:10:23;26.98;;;18.45;;
21158;SDS011;10737;45.436;4.390;2024-02-04T03:15:26;23.00;;;15.80;;
21158;SDS011;10737;45.436;4.390;2024-02-04T03:20:30;25.00;;;16.60;;
21158;SDS011;10737;45.436;4.390;2024-02-04T03:25:35;18.60;;;15.23;;
21158;SDS011;10737;45.436;4.390;2024-02-04T03:30:40;19.73;;;15.23;;
21158;SDS011;10737;45.436;4.390;2024-02-04T03:35:43;17.02;;;13.38;;
21158;SDS011;10737;45.436;4.390;2024-02-04T03:40:48;16.52;;;13.30;;
21158;SDS011;10737;45.436;4.390;2024-02-04T03:45:51;66.13;;;20.42;;
21158;SDS011;10737;45.436;4.390;2024-02-04T03:50:55;19.75;;;15.10;;
21158;SDS011;10737;45.436;4.390;2024-02-04T03:56:00;23.60;;;16.98;;
21158;SDS011;10737;45.436;4.390;2024-02-04T04:01:05;69.68;;;18.95;;
21158;SDS011;10737;45.436;4.390;2024-02-04T04:06:08;26.67;;;17.90;;
21158;SDS011;10737;45.436;4.390;2024-02-04T04:11:15;24.75;;;16.65;;
21158;SDS011;10737;45.436;4.390;2024-02-04T04:16:20;22.48;;;16.23;;
21158;SDS011;10737;45.436;4.390;2024-02-04T04:21:23;44.13;;;18.23;;
21158;SDS011;10737;45.436;4.390;2024-02-04T04:26:29;24.23;;;16.38;;
21158;SDS011;10737;45.436;4.390;2024-02-04T04:31:34;35.35;;;18.85;;
21158;SDS011;10737;45.436;4.390;2024-02-04T04:36:37;29.15;;;17.10;;
21158;SDS011;10737;45.436;4.390;2024-02-04T04:41:43;28.33;;;17.50;;
21158;SDS011;10737;45.436;4.390;2024-02-04T04:46:48;26.52;;;17.23;;
21158;SDS011;10737;45.436;4.390;2024-02-04T04:51:52;23.20;;;15.85;;
21158;SDS011;10737;45.436;4.390;2024-02-04T04:56:57;23.83;;;16.50;;
21158;SDS011;10737;45.436;4.390;2024-02-04T05:02:01;41.88;;;18.17;;
21158;SDS011;10737;45.436;4.390;2024-02-04T05:07:05;117.53;;;22.23;;
21158;SDS011;10737;45.436;4.390;2024-02-04T05:12:12;32.35;;;17.10;;
21158;SDS011;10737;45.436;4.390;2024-02-04T05:17:16;33.65;;;17.15;;
21158;SDS011;10737;45.436;4.390;2024-02-04T05:22:20;27.70;;;16.48;;
21158;SDS011;10737;45.436;4.390;2024-02-04T05:27:25;21.98;;;16.00;;
21158;SDS011;10737;45.436;4.390;2024-02-04T05:32:30;23.85;;;17.02;;
21158;SDS011;10737;45.436;4.390;2024-02-04T05:37:33;27.38;;;16.60;;
21158;SDS011;10737;45.436;4.390;2024-02-04T05:42:38;24.55;;;17.08;;
21158;SDS011;10737;45.436;4.390;2024-02-04T05:47:41;23.55;;;16.02;;
21158;SDS011;10737;45.436;4.390;2024-02-04T05:52:44;22.25;;;16.10;;
21158;SDS011;10737;45.436;4.390;2024-02-04T05:57:50;24.27;;;16.02;;
21158;SDS011;10737;45.436;4.390;2024-02-04T06:02:53;21.83;;;15.13;;
21158;SDS011;10737;45.436;4.390;2024-02-04T06:07:57;21.77;;;15.55;;
21158;SDS011;10737;45.436;4.390;2024-02-04T06:13:02;28.98;;;18.50;;
21158;SDS011;10737;45.436;4.390;2024-02-04T06:18:07;22.48;;;15.00;;
21158;SDS011;10737;45.436;4.390;2024-02-04T06:23:10;23.55;;;16.60;;
21158;SDS011;10737;45.436;4.390;2024-02-04T06:28:15;20.88;;;16.27;;
21158;SDS011;10737;45.436;4.390;2024-02-04T06:33:18;24.70;;;16.75;;
21158;SDS011;10737;45.436;4.390;2024-02-04T06:38:21;27.10;;;16.17;;
21158;SDS011;10737;45.436;4.390;2024-02-04T06:43:27;34.35;;;18.77;;
21158;SDS011;10737;45.436;4.390;2024-02-04T06:48:32;29.75;;;17.42;;
21158;SDS011;10737;45.436;4.390;2024-02-04T06:53:35;32.60;;;18.75;;
21158;SDS011;10737;45.436;4.390;2024-02-04T06:58:41;36.67;;;17.98;;
21158;SDS011;10737;45.436;4.390;2024-02-04T07:03:44;30.27;;;17.95;;
21158;SDS011;10737;45.436;4.390;2024-02-04T07:08:48;33.65;;;19.05;;
21158;SDS011;10737;45.436;4.390;2024-02-04T07:13:53;29.10;;;18.08;;
21158;SDS011;10737;45.436;4.390;2024-02-04T07:19:01;25.77;;;16.20;;
21158;SDS011;10737;45.436;4.390;2024-02-04T07:24:05;29.50;;;15.98;;
21158;SDS011;10737;45.436;4.390;2024-02-04T07:29:10;24.30;;;15.40;;
21158;SDS011;10737;45.436;4.390;2024-02-04T07:34:13;19.05;;;13.30;;
21158;SDS011;10737;45.436;4.390;2024-02-04T07:39:17;20.92;;;13.73;;
21158;SDS011;10737;45.436;4.390;2024-02-04T07:44:21;16.20;;;12.05;;
21158;SDS011;10737;45.436;4.390;2024-02-04T07:49:26;15.68;;;11.48;;
21158;SDS011;10737;45.436;4.390;2024-02-04T07:54:31;12.88;;;10.40;;
21158;SDS011;10737;45.436;4.390;2024-02-04T07:59:36;11.63;;;10.07;;
21158;SDS011;10737;45.436;4.390;2024-02-04T08:04:40;12.52;;;10.55;;
21158;SDS011;10737;45.436;4.390;2024-02-04T08:09:46;11.25;;;9.93;;
21158;SDS011;10737;45.436;4.390;2024-02-04T08:14:54;11.75;;;9.60;;
21158;SDS011;10737;45.436;4.390;2024-02-04T08:19:58;10.68;;;9.57;;
21158;SDS011;10737;45.436;4.390;2024-02-04T08:25:01;14.48;;;11.57;;
21158;SDS011;10737;45.436;4.390;2024-02-04T08:30:07;11.75;;;10.55;;
21158;SDS011;10737;45.436;4.390;2024-02-04T08:35:13;14.52;;;10.65;;
21158;SDS011;10737;45.436;4.390;2024-02-04T08:40:16;11.80;;;10.60;;
21158;SDS011;10737;45.436;4.390;2024-02-04T08:45:22;13.65;;;10.82;;
21158;SDS011;10737;45.436;4.390;2024-02-04T08:50:25;12.73;;;10.70;;
21158;SDS011;10737;45.436;4.390;2024-02-04T08:55:29;23.33;;;17.52;;
21158;SDS011;10737;45.436;4.390;2024-02-04T09:00:34;22.48;;;14.88;;
21158;SDS011;10737;45.436;4.390;2024-02-04T09:05:39;17.83;;;14.05;;
21158;SDS011;10737;45.436;4.390;2024-02-04T09:10:42;15.73;;;12.18;;
21158;SDS011;10737;45.436;4.390;2024-02-04T09:15:46;15.32;;;12.20;;
21158;SDS011;10737;45.436;4.390;2024-02-04T09:20:51;18.52;;;13.68;;
21158;SDS011;10737;45.436;4.390;2024-02-04T09:25:55;15.30;;;12.05;;
21158;SDS011;10737;45.436;4.390;2024-02-04T09:31:01;15.45;;;12.13;;
21158;SDS011;10737;45.436;4.390;2024-02-04T09:36:05;13.60;;;11.40;;
21158;SDS011;10737;45.436;4.390;2024-02-04T09:41:09;13.73;;;11.30;;
21158;SDS011;10737;45.436;4.390;2024-02-04T09:46:13;13.05;;;10.20;;
21158;SDS011;10737;45.436;4.390;2024-02-04T09:51:20;13.32;;;9.80;;
21158;SDS011;10737;45.436;4.390;2024-02-04T09:56:24;11.43;;;10.23;;
21158;SDS011;10737;45.436;4.390;2024-02-04T10:01:29;12.02;;;10.50;;
21158;SDS011;10737;45.436;4.390;2024-02-04T10:06:34;11.95;;;10.75;;
21158;SDS011;10737;45.436;4.390;2024-02-04T10:11:37;11.93;;;9.73;;
21158;SDS011;10737;45.436;4.390;2024-02-04T10:16:42;11.80;;;10.55;;
21158;SDS011;10737;45.436;4.390;2024-02-04T10:21:46;11.98;;;10.30;;
21158;SDS011;10737;45.436;4.390;2024-02-04T10:26:50;11.55;;;10.35;;
21158;SDS011;10737;45.436;4.390;2024-02-04T10:31:56;11.63;;;10.45;;
21158;SDS011;10737;45.436;4.390;2024-02-04T10:36:59;13.02;;;9.63;;
21158;SDS011;10737;45.436;4.390;2024-02-04T10:42:03;11.05;;;9.82;;
21158;SDS011;10737;45.436;4.390;2024-02-04T10:47:09;13.02;;;9.95;;
21158;SDS011;10737;45.436;4.390;2024-02-04T10:52:14;10.85;;;9.10;;
21158;SDS011;10737;45.436;4.390;2024-02-04T10:57:19;11.23;;;9.25;;
21158;SDS011;10737;45.436;4.390;2024-02-04T11:02:26;10.73;;;9.18;;
21158;SDS011;10737;45.436;4.390;2024-02-04T11:07:31;12.73;;;9.40;;
21158;SDS011;10737;45.436;4.390;2024-02-04T11:12:34;12.93;;;10.20;;
21158;SDS011;10737;45.436;4.390;2024-02-04T11:23:13;11.05;;;9.95;;
21158;SDS011;10737;45.436;4.390;2024-02-04T11:28:20;13.52;;;10.95;;
21158;SDS011;10737;45.436;4.390;2024-02-04T11:33:24;14.25;;;11.10;;
21158;SDS011;10737;45.436;4.390;2024-02-04T11:38:33;13.98;;;11.45;;
21158;SDS011;10737;45.436;4.390;2024-02-04T11:43:38;13.80;;;11.55;;
21158;SDS011;10737;45.436;4.390;2024-02-04T11:48:42;12.35;;;11.02;;
21158;SDS011;10737;45.436;4.390;2024-02-04T11:53:47;14.30;;;10.70;;
21158;SDS011;10737;45.436;4.390;2024-02-04T11:58:50;15.43;;;11.48;;
21158;SDS011;10737;45.436;4.390;2024-02-04T12:03:54;17.15;;;13.00;;
21158;SDS011;10737;45.436;4.390;2024-02-04T12:08:59;13.18;;;11.27;;
21158;SDS011;10737;45.436;4.390;2024-02-04T12:14:04;18.90;;;14.90;;
21158;SDS011;10737;45.436;4.390;2024-02-04T12:19:08;14.75;;;11.75;;
21158;SDS011;10737;45.436;4.390;2024-02-04T12:24:14;14.35;;;12.85;;
21158;SDS011;10737;45.436;4.390;2024-02-04T12:29:18;15.23;;;13.40;;
21158;SDS011;10737;45.436;4.390;2024-02-04T12:34:21;21.30;;;15.20;;
21158;SDS011;10737;45.436;4.390;2024-02-04T12:39:27;18.58;;;16.00;;
21158;SDS011;10737;45.436;4.390;2024-02-04T12:44:31;22.05;;;17.52;;
21158;SDS011;10737;45.436;4.390;2024-02-04T12:49:36;22.02;;;16.65;;
21158;SDS011;10737;45.436;4.390;2024-02-04T12:54:44;22.88;;;17.00;;
21158;SDS011;10737;45.436;4.390;2024-02-04T12:59:47;24.35;;;18.42;;
21158;SDS011;10737;45.436;4.390;2024-02-04T13:04:51;22.25;;;17.65;;
21158;SDS011;10737;45.436;4.390;2024-02-04T13:09:58;22.05;;;16.58;;
21158;SDS011;10737;45.436;4.390;2024-02-04T13:15:02;21.13;;;16.27;;
21158;SDS011;10737;45.436;4.390;2024-02-04T13:20:06;25.30;;;18.10;;
21158;SDS011;10737;45.436;4.390;2024-02-04T13:25:12;24.23;;;17.05;;
21158;SDS011;10737;45.436;4.390;2024-02-04T13:30:16;27.52;;;18.42;;
21158;SDS011;10737;45.436;4.390;2024-02-04T13:35:19;23.95;;;17.65;;
21158;SDS011;10737;45.436;4.390;2024-02-04T13:40:25;22.92;;;17.65;;
21158;SDS011;10737;45.436;4.390;2024-02-04T13:45:28;21.77;;;16.02;;
21158;SDS011;10737;45.436;4.390;2024-02-04T13:50:32;23.70;;;18.13;;
21158;SDS011;10737;45.436;4.390;2024-02-04T13:55:39;28.17;;;19.25;;
21158;SDS011;10737;45.436;4.390;2024-02-04T14:00:42;28.05;;;21.13;;
21158;SDS011;10737;45.436;4.390;2024-02-04T14:05:46;28.80;;;21.90;;
21158;SDS011;10737;45.436;4.390;2024-02-04T14:10:51;32.10;;;23.17;;
21158;SDS011;10737;45.436;4.390;2024-02-04T14:15:54;31.20;;;22.38;;
21158;SDS011;10737;45.436;4.390;2024-02-04T14:20:57;33.63;;;22.98;;
21158;SDS011;10737;45.436;4.390;2024-02-04T14:26:02;33.20;;;24.80;;
21158;SDS011;10737;45.436;4.390;2024-02-04T14:31:05;39.90;;;27.90;;
21158;SDS011;10737;45.436;4.390;2024-02-04T14:36:08;35.80;;;25.35;;
21158;SDS011;10737;45.436;4.390;2024-02-04T14:41:13;37.83;;;26.90;;
21158;SDS011;10737;45.436;4.390;2024-02-04T14:46:16;40.30;;;27.27;;
21158;SDS011;10737;45.436;4.390;2024-02-04T14:51:20;37.75;;;26.50;;
21158;SDS011;10737;45.436;4.390;2024-02-04T14:56:25;37.38;;;26.05;;
21158;SDS011;10737;45.436;4.390;2024-02-04T15:01:28;41.22;;;28.38;;
21158;SDS011;10737;45.436;4.390;2024-02-04T15:06:31;41.05;;;28.25;;
21158;SDS011;10737;45.436;4.390;2024-02-04T15:11:37;40.60;;;29.35;;
21158;SDS011;10737;45.436;4.390;2024-02-04T15:16:40;45.20;;;30.52;;
21158;SDS011;10737;45.436;4.390;2024-02-04T15:21:44;41.38;;;29.08;;
21158;SDS011;10737;45.436;4.390;2024-02-04T15:26:49;42.47;;;29.67;;
21158;SDS011;10737;45.436;4.390;2024-02-04T15:31:52;38.95;;;28.60;;
21158;SDS011;10737;45.436;4.390;2024-02-04T15:36:55;44.92;;;29.80;;
21158;SDS011;10737;45.436;4.390;2024-02-04T15:42:00;41.97;;;29.90;;
21158;SDS011;10737;45.436;4.390;2024-02-04T15:47:03;45.53;;;31.13;;
21158;SDS011;10737;45.436;4.390;2024-02-04T15:52:08;51.38;;;32.55;;
21158;SDS011;10737;45.436;4.390;2024-02-04T15:57:13;47.80;;;31.83;;
21158;SDS011;10737;45.436;4.390;2024-02-04T16:02:17;43.95;;;31.33;;
21158;SDS011;10737;45.436;4.390;2024-02-04T16:07:21;43.75;;;31.42;;
21158;SDS011;10737;45.436;4.390;2024-02-04T16:12:27;51.83;;;31.75;;
21158;SDS011;10737;45.436;4.390;2024-02-04T16:17:31;46.45;;;31.83;;
21158;SDS011;10737;45.436;4.390;2024-02-04T16:22:35;53.00;;;34.58;;
21158;SDS011;10737;45.436;4.390;2024-02-04T16:27:40;48.90;;;32.65;;
21158;SDS011;10737;45.436;4.390;2024-02-04T16:32:43;55.00;;;33.95;;
21158;SDS011;10737;45.436;4.390;2024-02-04T16:37:47;44.85;;;30.70;;
21158;SDS011;10737;45.436;4.390;2024-02-04T16:42:51;44.33;;;30.02;;
21158;SDS011;10737;45.436;4.390;2024-02-04T16:47:56;43.72;;;30.92;;
21158;SDS011;10737;45.436;4.390;2024-02-04T16:53:01;49.05;;;31.33;;
21158;SDS011;10737;45.436;4.390;2024-02-04T16:58:06;55.05;;;32.58;;
21158;SDS011;10737;45.436;4.390;2024-02-04T17:03:09;49.88;;;33.80;;
21158;SDS011;10737;45.436;4.390;2024-02-04T17:08:13;53.25;;;32.25;;
21158;SDS011;10737;45.436;4.390;2024-02-04T17:13:18;49.15;;;32.83;;
21158;SDS011;10737;45.436;4.390;2024-02-04T17:18:24;51.47;;;33.38;;
21158;SDS011;10737;45.436;4.390;2024-02-04T17:23:30;47.83;;;31.15;;
21158;SDS011;10737;45.436;4.390;2024-02-04T17:28:36;51.72;;;32.25;;
21158;SDS011;10737;45.436;4.390;2024-02-04T17:33:39;52.03;;;33.75;;
21158;SDS011;10737;45.436;4.390;2024-02-04T17:38:42;55.40;;;34.55;;
21158;SDS011;10737;45.436;4.390;2024-02-04T17:43:47;56.05;;;32.72;;
21158;SDS011;10737;45.436;4.390;2024-02-04T17:48:50;58.00;;;32.97;;
21158;SDS011;10737;45.436;4.390;2024-02-04T17:53:53;54.63;;;33.38;;
21158;SDS011;10737;45.436;4.390;2024-02-04T17:58:58;57.63;;;34.70;;
21158;SDS011;10737;45.436;4.390;2024-02-04T18:04:02;47.58;;;31.00;;
21158;SDS011;10737;45.436;4.390;2024-02-04T18:09:06;60.92;;;33.80;;
21158;SDS011;10737;45.436;4.390;2024-02-04T18:14:11;59.97;;;36.10;;
21158;SDS011;10737;45.436;4.390;2024-02-04T18:19:14;50.80;;;31.65;;
21158;SDS011;10737;45.436;4.390;2024-02-04T18:24:18;72.88;;;33.63;;
21158;SDS011;10737;45.436;4.390;2024-02-04T18:29:23;52.30;;;30.75;;
21158;SDS011;10737;45.436;4.390;2024-02-04T18:34:27;88.68;;;33.72;;
21158;SDS011;10737;45.436;4.390;2024-02-04T18:39:30;51.25;;;29.48;;
21158;SDS011;10737;45.436;4.390;2024-02-04T18:44:35;57.17;;;29.33;;
21158;SDS011;10737;45.436;4.390;2024-02-04T18:49:38;55.75;;;29.65;;
21158;SDS011;10737;45.436;4.390;2024-02-04T18:54:44;49.05;;;30.63;;
21158;SDS011;10737;45.436;4.390;2024-02-04T18:59:49;47.13;;;29.95;;
21158;SDS011;10737;45.436;4.390;2024-02-04T19:04:52;51.67;;;30.02;;
21158;SDS011;10737;45.436;4.390;2024-02-04T19:09:55;53.30;;;32.90;;
21158;SDS011;10737;45.436;4.390;2024-02-04T19:15:00;48.60;;;30.25;;
21158;SDS011;10737;45.436;4.390;2024-02-04T19:20:06;53.53;;;34.38;;
21158;SDS011;10737;45.436;4.390;2024-02-04T19:25:11;58.03;;;34.83;;
21158;SDS011;10737;45.436;4.390;2024-02-04T19:30:18;56.25;;;34.35;;
21158;SDS011;10737;45.436;4.390;2024-02-04T19:35:22;63.85;;;36.13;;
21158;SDS011;10737;45.436;4.390;2024-02-04T19:40:26;52.50;;;32.95;;
21158;SDS011;10737;45.436;4.390;2024-02-04T19:45:31;61.95;;;35.13;;
21158;SDS011;10737;45.436;4.390;2024-02-04T19:50:35;54.65;;;34.65;;
21158;SDS011;10737;45.436;4.390;2024-02-04T19:55:38;57.28;;;34.88;;
21158;SDS011;10737;45.436;4.390;2024-02-04T20:00:43;51.85;;;31.23;;
21158;SDS011;10737;45.436;4.390;2024-02-04T20:05:47;57.13;;;40.15;;
21158;SDS011;10737;45.436;4.390;2024-02-04T20:10:51;49.75;;;33.15;;
21158;SDS011;10737;45.436;4.390;2024-02-04T20:15:55;56.42;;;33.42;;
21158;SDS011;10737;45.436;4.390;2024-02-04T20:20:59;48.30;;;31.63;;
21158;SDS011;10737;45.436;4.390;2024-02-04T20:26:02;43.25;;;29.95;;
21158;SDS011;10737;45.436;4.390;2024-02-04T20:31:07;46.65;;;30.13;;
21158;SDS011;10737;45.436;4.390;2024-02-04T20:36:10;48.63;;;31.98;;
21158;SDS011;10737;45.436;4.390;2024-02-04T20:41:13;47.15;;;32.47;;
21158;SDS011;10737;45.436;4.390;2024-02-04T20:46:19;39.67;;;28.00;;
21158;SDS011;10737;45.436;4.390;2024-02-04T20:51:22;45.78;;;30.42;;
21158;SDS011;10737;45.436;4.390;2024-02-04T20:56:26;44.90;;;30.77;;
21158;SDS011;10737;45.436;4.390;2024-02-04T21:01:32;42.67;;;29.08;;
21158;SDS011;10737;45.436;4.390;2024-02-04T21:06:36;45.72;;;30.33;;
21158;SDS011;10737;45.436;4.390;2024-02-04T21:11:39;45.05;;;30.23;;
21158;SDS011;10737;45.436;4.390;2024-02-04T21:16:44;44.25;;;29.63;;
21158;SDS011;10737;45.436;4.390;2024-02-04T21:21:47;53.13;;;32.22;;
21158;SDS011;10737;45.436;4.390;2024-02-04T21:26:50;55.53;;;33.28;;
21158;SDS011;10737;45.436;4.390;2024-02-04T21:31:55;56.25;;;34.75;;
21158;SDS011;10737;45.436;4.390;2024-02-04T21:36:58;56.72;;;33.47;;
21158;SDS011;10737;45.436;4.390;2024-02-04T21:42:02;51.45;;;31.83;;
21158;SDS011;10737;45.436;4.390;2024-02-04T21:47:06;51.67;;;33.03;;
21158;SDS011;10737;45.436;4.390;2024-02-04T21:52:10;50.92;;;31.90;;
21158;SDS011;10737;45.436;4.390;2024-02-04T21:57:13;51.65;;;31.92;;
21158;SDS011;10737;45.436;4.390;2024-02-04T22:02:19;54.97;;;33.15;;
21158;SDS011;10737;45.436;4.390;2024-02-04T22:07:22;78.47;;;34.58;;
21158;SDS011;10737;45.436;4.390;2024-02-04T22:12:25;75.13;;;36.13;;
21158;SDS011;10737;45.436;4.390;2024-02-04T22:17:30;56.10;;;31.63;;
21158;SDS011;10737;45.436;4.390;2024-02-04T22:22:33;63.47;;;32.10;;
21158;SDS011;10737;45.436;4.390;2024-02-04T22:27:36;70.93;;;32.83;;
21158;SDS011;10737;45.436;4.390;2024-02-04T22:32:41;48.08;;;28.70;;
21158;SDS011;10737;45.436;4.390;2024-02-04T22:37:44;43.50;;;28.05;;
21158;SDS011;10737;45.436;4.390;2024-02-04T22:42:48;46.80;;;30.17;;
21158;SDS011;10737;45.436;4.390;2024-02-04T22:47:52;50.92;;;30.42;;
21158;SDS011;10737;45.436;4.390;2024-02-04T22:52:56;59.80;;;29.50;;
21158;SDS011;10737;45.436;4.390;2024-02-04T22:57:59;68.90;;;30.27;;
21158;SDS011;10737;45.436;4.390;2024-02-04T23:03:05;75.65;;;30.02;;
21158;SDS011;10737;45.436;4.390;2024-02-04T23:08:08;51.05;;;28.35;;
21158;SDS011;10737;45.436;4.390;2024-02-04T23:13:11;57.58;;;29.40;;
21158;SDS011;10737;45.436;4.390;2024-02-04T23:18:17;49.30;;;26.55;;
21158;SDS011;10737;45.436;4.390;2024-02-04T23:23:20;54.15;;;27.20;;
21158;SDS011;10737;45.436;4.390;2024-02-04T23:28:25;50.75;;;24.55;;
21158;SDS011;10737;45.436;4.390;2024-02-04T23:33:30;55.90;;;24.08;;
21158;SDS011;10737;45.436;4.390;2024-02-04T23:38:33;44.78;;;24.33;;
21158;SDS011;10737;45.436;4.390;2024-02-04T23:43:36;43.53;;;23.10;;
21158;SDS011;10737;45.436;4.390;2024-02-04T23:48:41;33.85;;;21.95;;
21158;SDS011;10737;45.436;4.390;2024-02-04T23:53:45;110.13;;;25.50;;
21158;SDS011;10737;45.436;4.390;2024-02-04T23:58:49;63.35;;;21.48;;
